sensor_id;sensor_type;location;lat;lon;timestamp;P1;durP1;ratioP1;P2;durP2;ratioP2
6406;SDS011;3236;51.022;6.818;2022-07-18T00:01:24;5.68;;;2.42;;
6406;SDS011;3236;51.022;6.818;2022-07-18T00:03:51;3.67;;;2.10;;
6406;SDS011;3236;51.022;6.818;2022-07-18T00:06:18;6.07;;;2.20;;
6406;SDS011;3236;51.022;6.818;2022-07-18T00:08:46;6.80;;;2.50;;
6406;SDS011;3236;51.022;6.818;2022-07-18T00:11:13;11.05;;;2.88;;
6406;SDS011;3236;51.022;6.818;2022-07-18T00:13:40;9.55;;;3.10;;
6406;SDS011;3236;51.022;6.818;2022-07-18T00:16:07;16.15;;;3.33;;
6406;SDS011;3236;51.022;6.818;2022-07-18T00:18:36;12.02;;;2.95;;
6406;SDS011;3236;51.022;6.818;2022-07-18T00:21:06;17.27;;;3.22;;
6406;SDS011;3236;51.022;6.818;2022-07-18T00:23:33;9.55;;;3.05;;
6406;SDS011;3236;51.022;6.818;2022-07-18T00:26:01;13.85;;;2.80;;
6406;SDS011;3236;51.022;6.818;2022-07-18T00:28:28;11.10;;;3.20;;
6406;SDS011;3236;51.022;6.818;2022-07-18T00:30:56;7.50;;;3.03;;
6406;SDS011;3236;51.022;6.818;2022-07-18T00:33:23;9.35;;;3.10;;
6406;SDS011;3236;51.022;6.818;2022-07-18T00:35:51;10.35;;;3.10;;
6406;SDS011;3236;51.022;6.818;2022-07-18T00:38:19;8.60;;;2.63;;
6406;SDS011;3236;51.022;6.818;2022-07-18T00:40:46;5.15;;;2.42;;
6406;SDS011;3236;51.022;6.818;2022-07-18T00:43:13;8.20;;;2.38;;
6406;SDS011;3236;51.022;6.818;2022-07-18T00:45:43;5.35;;;2.53;;
6406;SDS011;3236;51.022;6.818;2022-07-18T00:48:11;7.38;;;2.88;;
6406;SDS011;3236;51.022;6.818;2022-07-18T00:50:39;6.35;;;2.58;;
6406;SDS011;3236;51.022;6.818;2022-07-18T00:53:08;6.38;;;2.80;;
6406;SDS011;3236;51.022;6.818;2022-07-18T00:55:36;7.05;;;2.50;;
6406;SDS011;3236;51.022;6.818;2022-07-18T00:58:04;7.90;;;3.08;;
6406;SDS011;3236;51.022;6.818;2022-07-18T01:00:31;9.07;;;2.80;;
6406;SDS011;3236;51.022;6.818;2022-07-18T01:03:16;7.55;;;3.00;;
6406;SDS011;3236;51.022;6.818;2022-07-18T01:05:43;5.68;;;2.80;;
6406;SDS011;3236;51.022;6.818;2022-07-18T01:08:12;4.72;;;2.78;;
6406;SDS011;3236;51.022;6.818;2022-07-18T01:10:40;9.30;;;2.95;;
6406;SDS011;3236;51.022;6.818;2022-07-18T01:13:07;7.00;;;2.95;;
6406;SDS011;3236;51.022;6.818;2022-07-18T01:15:35;8.63;;;2.92;;
6406;SDS011;3236;51.022;6.818;2022-07-18T01:18:02;4.97;;;3.05;;
6406;SDS011;3236;51.022;6.818;2022-07-18T01:20:31;9.52;;;2.80;;
6406;SDS011;3236;51.022;6.818;2022-07-18T01:22:59;8.55;;;3.00;;
6406;SDS011;3236;51.022;6.818;2022-07-18T01:25:26;11.48;;;3.22;;
6406;SDS011;3236;51.022;6.818;2022-07-18T01:27:53;6.18;;;2.90;;
6406;SDS011;3236;51.022;6.818;2022-07-18T01:30:22;6.20;;;2.47;;
6406;SDS011;3236;51.022;6.818;2022-07-18T01:32:54;9.38;;;2.80;;
6406;SDS011;3236;51.022;6.818;2022-07-18T01:35:22;5.18;;;2.67;;
6406;SDS011;3236;51.022;6.818;2022-07-18T01:37:51;8.20;;;2.25;;
6406;SDS011;3236;51.022;6.818;2022-07-18T01:40:22;6.82;;;2.10;;
6406;SDS011;3236;51.022;6.818;2022-07-18T01:42:49;10.77;;;2.67;;
6406;SDS011;3236;51.022;6.818;2022-07-18T01:45:17;6.43;;;2.50;;
6406;SDS011;3236;51.022;6.818;2022-07-18T01:47:48;9.13;;;2.60;;
6406;SDS011;3236;51.022;6.818;2022-07-18T01:50:17;6.93;;;2.63;;
6406;SDS011;3236;51.022;6.818;2022-07-18T01:52:44;6.93;;;2.85;;
6406;SDS011;3236;51.022;6.818;2022-07-18T01:55:13;5.47;;;2.70;;
6406;SDS011;3236;51.022;6.818;2022-07-18T01:57:41;9.43;;;2.53;;
6406;SDS011;3236;51.022;6.818;2022-07-18T02:00:09;5.80;;;2.30;;
6406;SDS011;3236;51.022;6.818;2022-07-18T02:02:38;6.25;;;2.40;;
6406;SDS011;3236;51.022;6.818;2022-07-18T02:05:06;6.40;;;2.65;;
6406;SDS011;3236;51.022;6.818;2022-07-18T02:07:36;8.25;;;2.83;;
6406;SDS011;3236;51.022;6.818;2022-07-18T02:10:05;6.05;;;2.60;;
6406;SDS011;3236;51.022;6.818;2022-07-18T02:12:38;9.20;;;2.95;;
6406;SDS011;3236;51.022;6.818;2022-07-18T02:15:07;6.78;;;2.78;;
6406;SDS011;3236;51.022;6.818;2022-07-18T02:17:35;7.40;;;2.33;;
6406;SDS011;3236;51.022;6.818;2022-07-18T02:20:03;5.10;;;2.63;;
6406;SDS011;3236;51.022;6.818;2022-07-18T02:22:30;6.25;;;2.17;;
6406;SDS011;3236;51.022;6.818;2022-07-18T02:24:57;9.80;;;2.67;;
6406;SDS011;3236;51.022;6.818;2022-07-18T02:30:48;11.05;;;3.30;;
6406;SDS011;3236;51.022;6.818;2022-07-18T02:33:16;4.45;;;2.97;;
6406;SDS011;3236;51.022;6.818;2022-07-18T02:35:43;12.35;;;3.58;;
6406;SDS011;3236;51.022;6.818;2022-07-18T02:38:11;5.53;;;2.47;;
6406;SDS011;3236;51.022;6.818;2022-07-18T02:40:38;5.95;;;2.70;;
6406;SDS011;3236;51.022;6.818;2022-07-18T02:43:05;7.68;;;2.70;;
6406;SDS011;3236;51.022;6.818;2022-07-18T02:45:33;7.25;;;3.40;;
6406;SDS011;3236;51.022;6.818;2022-07-18T02:48:01;10.52;;;3.05;;
6406;SDS011;3236;51.022;6.818;2022-07-18T02:50:28;5.32;;;2.95;;
6406;SDS011;3236;51.022;6.818;2022-07-18T02:52:55;6.28;;;3.28;;
6406;SDS011;3236;51.022;6.818;2022-07-18T02:55:30;5.10;;;2.38;;
6406;SDS011;3236;51.022;6.818;2022-07-18T02:57:57;5.65;;;2.60;;
6406;SDS011;3236;51.022;6.818;2022-07-18T03:00:24;9.20;;;3.85;;
6406;SDS011;3236;51.022;6.818;2022-07-18T03:02:51;4.93;;;2.50;;
6406;SDS011;3236;51.022;6.818;2022-07-18T03:05:20;5.30;;;3.00;;
6406;SDS011;3236;51.022;6.818;2022-07-18T03:07:47;8.57;;;2.85;;
6406;SDS011;3236;51.022;6.818;2022-07-18T03:10:14;3.72;;;2.30;;
6406;SDS011;3236;51.022;6.818;2022-07-18T03:12:41;3.85;;;2.50;;
6406;SDS011;3236;51.022;6.818;2022-07-18T03:15:09;5.82;;;2.60;;
6406;SDS011;3236;51.022;6.818;2022-07-18T03:17:39;3.38;;;2.50;;
6406;SDS011;3236;51.022;6.818;2022-07-18T03:20:07;5.97;;;2.30;;
6406;SDS011;3236;51.022;6.818;2022-07-18T03:22:36;8.55;;;2.83;;
6406;SDS011;3236;51.022;6.818;2022-07-18T03:25:03;4.72;;;2.20;;
6406;SDS011;3236;51.022;6.818;2022-07-18T03:27:31;5.05;;;2.47;;
6406;SDS011;3236;51.022;6.818;2022-07-18T03:29:58;5.03;;;2.28;;
6406;SDS011;3236;51.022;6.818;2022-07-18T03:32:25;3.25;;;2.28;;
6406;SDS011;3236;51.022;6.818;2022-07-18T03:34:52;9.57;;;2.17;;
6406;SDS011;3236;51.022;6.818;2022-07-18T03:37:19;4.13;;;2.60;;
6406;SDS011;3236;51.022;6.818;2022-07-18T03:39:48;7.30;;;2.83;;
6406;SDS011;3236;51.022;6.818;2022-07-18T03:42:16;4.30;;;2.45;;
6406;SDS011;3236;51.022;6.818;2022-07-18T03:44:43;3.20;;;2.30;;
6406;SDS011;3236;51.022;6.818;2022-07-18T03:47:11;7.30;;;2.63;;
6406;SDS011;3236;51.022;6.818;2022-07-18T03:49:38;9.10;;;3.00;;
6406;SDS011;3236;51.022;6.818;2022-07-18T03:52:05;3.80;;;2.13;;
6406;SDS011;3236;51.022;6.818;2022-07-18T03:54:32;4.43;;;1.88;;
6406;SDS011;3236;51.022;6.818;2022-07-18T03:57:01;6.25;;;2.28;;
6406;SDS011;3236;51.022;6.818;2022-07-18T03:59:28;4.80;;;2.20;;
6406;SDS011;3236;51.022;6.818;2022-07-18T04:01:55;6.78;;;2.33;;
6406;SDS011;3236;51.022;6.818;2022-07-18T04:04:22;6.07;;;2.53;;
6406;SDS011;3236;51.022;6.818;2022-07-18T04:06:51;5.00;;;2.38;;
6406;SDS011;3236;51.022;6.818;2022-07-18T04:09:19;10.00;;;2.60;;
6406;SDS011;3236;51.022;6.818;2022-07-18T04:11:46;5.32;;;2.72;;
6406;SDS011;3236;51.022;6.818;2022-07-18T04:14:14;5.10;;;2.70;;
6406;SDS011;3236;51.022;6.818;2022-07-18T04:16:41;6.25;;;2.45;;
6406;SDS011;3236;51.022;6.818;2022-07-18T04:19:09;6.15;;;2.33;;
6406;SDS011;3236;51.022;6.818;2022-07-18T04:21:39;3.95;;;2.25;;
6406;SDS011;3236;51.022;6.818;2022-07-18T04:24:06;5.72;;;2.90;;
6406;SDS011;3236;51.022;6.818;2022-07-18T04:26:33;4.93;;;2.33;;
6406;SDS011;3236;51.022;6.818;2022-07-18T04:29:01;7.40;;;2.30;;
6406;SDS011;3236;51.022;6.818;2022-07-18T04:31:30;3.53;;;2.05;;
6406;SDS011;3236;51.022;6.818;2022-07-18T04:33:57;8.52;;;2.33;;
6406;SDS011;3236;51.022;6.818;2022-07-18T04:36:25;2.70;;;2.05;;
6406;SDS011;3236;51.022;6.818;2022-07-18T04:38:52;6.85;;;2.55;;
6406;SDS011;3236;51.022;6.818;2022-07-18T04:41:19;4.55;;;2.60;;
6406;SDS011;3236;51.022;6.818;2022-07-18T04:43:50;6.22;;;2.20;;
6406;SDS011;3236;51.022;6.818;2022-07-18T04:46:17;5.78;;;2.45;;
6406;SDS011;3236;51.022;6.818;2022-07-18T04:48:46;3.78;;;1.90;;
6406;SDS011;3236;51.022;6.818;2022-07-18T04:51:14;3.25;;;1.90;;
6406;SDS011;3236;51.022;6.818;2022-07-18T04:53:41;4.35;;;2.08;;
6406;SDS011;3236;51.022;6.818;2022-07-18T04:56:08;6.63;;;1.95;;
6406;SDS011;3236;51.022;6.818;2022-07-18T04:58:35;5.35;;;2.00;;
6406;SDS011;3236;51.022;6.818;2022-07-18T05:01:02;3.42;;;2.08;;
6406;SDS011;3236;51.022;6.818;2022-07-18T05:03:29;5.03;;;2.03;;
6406;SDS011;3236;51.022;6.818;2022-07-18T05:05:58;5.35;;;2.45;;
6406;SDS011;3236;51.022;6.818;2022-07-18T05:08:26;5.65;;;2.10;;
6406;SDS011;3236;51.022;6.818;2022-07-18T05:10:53;2.28;;;1.75;;
6406;SDS011;3236;51.022;6.818;2022-07-18T05:13:20;8.93;;;2.80;;
6406;SDS011;3236;51.022;6.818;2022-07-18T05:15:47;4.38;;;1.80;;
6406;SDS011;3236;51.022;6.818;2022-07-18T05:18:14;5.40;;;2.22;;
6406;SDS011;3236;51.022;6.818;2022-07-18T05:20:41;7.13;;;2.22;;
6406;SDS011;3236;51.022;6.818;2022-07-18T05:23:14;3.17;;;1.80;;
6406;SDS011;3236;51.022;6.818;2022-07-18T05:25:42;9.10;;;2.10;;
6406;SDS011;3236;51.022;6.818;2022-07-18T05:28:09;5.13;;;2.17;;
6406;SDS011;3236;51.022;6.818;2022-07-18T05:30:36;5.90;;;2.20;;
6406;SDS011;3236;51.022;6.818;2022-07-18T05:33:03;8.32;;;2.45;;
6406;SDS011;3236;51.022;6.818;2022-07-18T05:35:31;5.45;;;2.22;;
6406;SDS011;3236;51.022;6.818;2022-07-18T05:37:58;6.43;;;2.20;;
6406;SDS011;3236;51.022;6.818;2022-07-18T05:40:27;5.20;;;2.45;;
6406;SDS011;3236;51.022;6.818;2022-07-18T05:42:54;6.07;;;1.95;;
6406;SDS011;3236;51.022;6.818;2022-07-18T05:45:21;4.97;;;1.98;;
6406;SDS011;3236;51.022;6.818;2022-07-18T05:47:49;3.58;;;1.80;;
6406;SDS011;3236;51.022;6.818;2022-07-18T05:50:16;6.38;;;2.47;;
6406;SDS011;3236;51.022;6.818;2022-07-18T05:52:43;3.50;;;1.98;;
6406;SDS011;3236;51.022;6.818;2022-07-18T05:55:13;5.07;;;2.55;;
6406;SDS011;3236;51.022;6.818;2022-07-18T05:57:41;8.75;;;2.10;;
6406;SDS011;3236;51.022;6.818;2022-07-18T06:00:09;3.42;;;1.70;;
6406;SDS011;3236;51.022;6.818;2022-07-18T06:02:37;5.55;;;2.10;;
6406;SDS011;3236;51.022;6.818;2022-07-18T06:05:06;6.20;;;1.77;;
6406;SDS011;3236;51.022;6.818;2022-07-18T06:07:34;3.90;;;1.70;;
6406;SDS011;3236;51.022;6.818;2022-07-18T06:10:01;4.10;;;1.75;;
6406;SDS011;3236;51.022;6.818;2022-07-18T06:12:29;4.47;;;1.75;;
6406;SDS011;3236;51.022;6.818;2022-07-18T06:14:59;3.75;;;1.60;;
6406;SDS011;3236;51.022;6.818;2022-07-18T06:17:26;7.93;;;1.92;;
6406;SDS011;3236;51.022;6.818;2022-07-18T06:19:54;8.20;;;2.08;;
6406;SDS011;3236;51.022;6.818;2022-07-18T06:22:22;6.32;;;1.60;;
6406;SDS011;3236;51.022;6.818;2022-07-18T06:24:49;5.05;;;1.73;;
6406;SDS011;3236;51.022;6.818;2022-07-18T06:27:16;3.05;;;1.58;;
6406;SDS011;3236;51.022;6.818;2022-07-18T06:29:43;3.83;;;1.38;;
6406;SDS011;3236;51.022;6.818;2022-07-18T06:32:12;2.85;;;1.58;;
6406;SDS011;3236;51.022;6.818;2022-07-18T06:34:38;9.10;;;1.65;;
6406;SDS011;3236;51.022;6.818;2022-07-18T06:37:06;7.78;;;1.80;;
6406;SDS011;3236;51.022;6.818;2022-07-18T06:39:33;1.95;;;1.30;;
6406;SDS011;3236;51.022;6.818;2022-07-18T06:42:00;4.00;;;1.48;;
6406;SDS011;3236;51.022;6.818;2022-07-18T06:44:27;5.10;;;1.70;;
6406;SDS011;3236;51.022;6.818;2022-07-18T06:46:54;3.75;;;1.60;;
6406;SDS011;3236;51.022;6.818;2022-07-18T06:49:26;4.75;;;1.65;;
6406;SDS011;3236;51.022;6.818;2022-07-18T06:51:54;2.35;;;1.25;;
6406;SDS011;3236;51.022;6.818;2022-07-18T06:54:21;3.28;;;1.60;;
6406;SDS011;3236;51.022;6.818;2022-07-18T06:56:52;5.75;;;1.60;;
6406;SDS011;3236;51.022;6.818;2022-07-18T06:59:19;3.78;;;1.42;;
6406;SDS011;3236;51.022;6.818;2022-07-18T07:01:46;3.60;;;1.65;;
6406;SDS011;3236;51.022;6.818;2022-07-18T07:04:14;2.30;;;1.38;;
6406;SDS011;3236;51.022;6.818;2022-07-18T07:06:42;2.60;;;1.48;;
6406;SDS011;3236;51.022;6.818;2022-07-18T07:09:10;6.43;;;1.55;;
6406;SDS011;3236;51.022;6.818;2022-07-18T07:11:37;4.38;;;1.75;;
6406;SDS011;3236;51.022;6.818;2022-07-18T07:14:04;7.65;;;2.00;;
6406;SDS011;3236;51.022;6.818;2022-07-18T07:16:31;6.40;;;1.60;;
6406;SDS011;3236;51.022;6.818;2022-07-18T07:19:01;6.20;;;1.60;;
6406;SDS011;3236;51.022;6.818;2022-07-18T07:21:28;6.72;;;2.10;;
6406;SDS011;3236;51.022;6.818;2022-07-18T07:23:57;4.35;;;1.45;;
6406;SDS011;3236;51.022;6.818;2022-07-18T07:26:24;6.32;;;1.50;;
6406;SDS011;3236;51.022;6.818;2022-07-18T07:28:51;4.80;;;2.35;;
6406;SDS011;3236;51.022;6.818;2022-07-18T07:31:18;6.45;;;1.70;;
6406;SDS011;3236;51.022;6.818;2022-07-18T07:33:45;5.97;;;1.50;;
6406;SDS011;3236;51.022;6.818;2022-07-18T07:36:12;4.40;;;1.60;;
6406;SDS011;3236;51.022;6.818;2022-07-18T07:38:39;5.45;;;1.90;;
6406;SDS011;3236;51.022;6.818;2022-07-18T07:41:08;4.18;;;1.80;;
6406;SDS011;3236;51.022;6.818;2022-07-18T07:43:38;3.70;;;1.77;;
6406;SDS011;3236;51.022;6.818;2022-07-18T07:46:05;3.85;;;1.67;;
6406;SDS011;3236;51.022;6.818;2022-07-18T07:48:33;3.83;;;1.60;;
6406;SDS011;3236;51.022;6.818;2022-07-18T07:50:59;4.68;;;2.00;;
6406;SDS011;3236;51.022;6.818;2022-07-18T07:53:28;4.78;;;1.70;;
6406;SDS011;3236;51.022;6.818;2022-07-18T07:55:55;9.68;;;1.58;;
6406;SDS011;3236;51.022;6.818;2022-07-18T07:58:24;6.20;;;2.08;;
6406;SDS011;3236;51.022;6.818;2022-07-18T08:00:51;3.70;;;1.30;;
6406;SDS011;3236;51.022;6.818;2022-07-18T08:03:18;6.22;;;1.50;;
6406;SDS011;3236;51.022;6.818;2022-07-18T08:05:49;5.15;;;1.55;;
6406;SDS011;3236;51.022;6.818;2022-07-18T08:08:17;7.00;;;1.83;;
6406;SDS011;3236;51.022;6.818;2022-07-18T08:10:44;8.57;;;1.70;;
6406;SDS011;3236;51.022;6.818;2022-07-18T08:13:12;3.17;;;1.35;;
6406;SDS011;3236;51.022;6.818;2022-07-18T08:15:41;5.95;;;1.70;;
6406;SDS011;3236;51.022;6.818;2022-07-18T08:18:09;9.43;;;1.85;;
6406;SDS011;3236;51.022;6.818;2022-07-18T08:20:36;4.53;;;1.85;;
6406;SDS011;3236;51.022;6.818;2022-07-18T08:23:03;4.25;;;1.70;;
6406;SDS011;3236;51.022;6.818;2022-07-18T08:25:33;2.75;;;1.33;;
6406;SDS011;3236;51.022;6.818;2022-07-18T08:28:01;6.68;;;1.55;;
6406;SDS011;3236;51.022;6.818;2022-07-18T08:30:28;4.57;;;1.80;;
6406;SDS011;3236;51.022;6.818;2022-07-18T08:32:58;4.40;;;1.58;;
6406;SDS011;3236;51.022;6.818;2022-07-18T08:35:26;7.47;;;1.70;;
6406;SDS011;3236;51.022;6.818;2022-07-18T08:37:53;5.63;;;1.50;;
6406;SDS011;3236;51.022;6.818;2022-07-18T08:40:23;3.97;;;1.55;;
6406;SDS011;3236;51.022;6.818;2022-07-18T08:42:54;5.35;;;1.63;;
6406;SDS011;3236;51.022;6.818;2022-07-18T08:45:23;3.95;;;1.63;;
6406;SDS011;3236;51.022;6.818;2022-07-18T08:47:51;8.45;;;1.80;;
6406;SDS011;3236;51.022;6.818;2022-07-18T08:50:21;4.68;;;1.45;;
6406;SDS011;3236;51.022;6.818;2022-07-18T08:52:48;3.25;;;1.27;;
6406;SDS011;3236;51.022;6.818;2022-07-18T08:55:15;9.18;;;1.63;;
6406;SDS011;3236;51.022;6.818;2022-07-18T08:57:43;3.85;;;1.58;;
6406;SDS011;3236;51.022;6.818;2022-07-18T09:00:10;4.63;;;1.40;;
6406;SDS011;3236;51.022;6.818;2022-07-18T09:02:44;6.05;;;1.40;;
6406;SDS011;3236;51.022;6.818;2022-07-18T09:05:17;6.38;;;1.63;;
6406;SDS011;3236;51.022;6.818;2022-07-18T09:07:50;5.75;;;1.80;;
6406;SDS011;3236;51.022;6.818;2022-07-18T09:10:17;3.97;;;1.50;;
6406;SDS011;3236;51.022;6.818;2022-07-18T09:12:55;6.25;;;1.60;;
6406;SDS011;3236;51.022;6.818;2022-07-18T09:15:23;5.95;;;1.90;;
6406;SDS011;3236;51.022;6.818;2022-07-18T09:17:55;12.23;;;2.25;;
6406;SDS011;3236;51.022;6.818;2022-07-18T09:20:22;5.95;;;2.10;;
6406;SDS011;3236;51.022;6.818;2022-07-18T09:22:51;9.32;;;3.33;;
6406;SDS011;3236;51.022;6.818;2022-07-18T09:25:19;13.07;;;6.68;;
6406;SDS011;3236;51.022;6.818;2022-07-18T09:27:51;14.80;;;8.68;;
6406;SDS011;3236;51.022;6.818;2022-07-18T09:30:20;14.43;;;8.50;;
6406;SDS011;3236;51.022;6.818;2022-07-18T09:32:53;12.57;;;8.05;;
6406;SDS011;3236;51.022;6.818;2022-07-18T09:35:22;16.67;;;5.93;;
6406;SDS011;3236;51.022;6.818;2022-07-18T09:37:54;13.35;;;5.78;;
6406;SDS011;3236;51.022;6.818;2022-07-18T09:40:23;9.27;;;4.93;;
6406;SDS011;3236;51.022;6.818;2022-07-18T09:42:52;17.55;;;3.47;;
6406;SDS011;3236;51.022;6.818;2022-07-18T09:45:21;5.38;;;2.63;;
6406;SDS011;3236;51.022;6.818;2022-07-18T09:47:53;12.95;;;2.70;;
6406;SDS011;3236;51.022;6.818;2022-07-18T09:50:22;8.10;;;2.70;;
6406;SDS011;3236;51.022;6.818;2022-07-18T09:53:00;7.25;;;2.45;;
6406;SDS011;3236;51.022;6.818;2022-07-18T09:55:32;6.72;;;2.30;;
6406;SDS011;3236;51.022;6.818;2022-07-18T09:58:01;4.60;;;1.45;;
6406;SDS011;3236;51.022;6.818;2022-07-18T10:00:31;5.05;;;1.58;;
6406;SDS011;3236;51.022;6.818;2022-07-18T10:02:59;4.35;;;1.63;;
6406;SDS011;3236;51.022;6.818;2022-07-18T10:05:28;2.80;;;1.58;;
6406;SDS011;3236;51.022;6.818;2022-07-18T10:07:56;5.15;;;1.30;;
6406;SDS011;3236;51.022;6.818;2022-07-18T10:10:28;2.33;;;1.27;;
6406;SDS011;3236;51.022;6.818;2022-07-18T10:12:56;4.32;;;1.30;;
6406;SDS011;3236;51.022;6.818;2022-07-18T10:15:25;2.28;;;1.10;;
6406;SDS011;3236;51.022;6.818;2022-07-18T10:17:53;3.95;;;1.38;;
6406;SDS011;3236;51.022;6.818;2022-07-18T10:20:28;1.88;;;1.30;;
6406;SDS011;3236;51.022;6.818;2022-07-18T10:22:58;3.45;;;1.42;;
6406;SDS011;3236;51.022;6.818;2022-07-18T10:25:34;4.55;;;1.60;;
6406;SDS011;3236;51.022;6.818;2022-07-18T10:28:06;3.92;;;1.65;;
6406;SDS011;3236;51.022;6.818;2022-07-18T10:30:39;3.67;;;1.50;;
6406;SDS011;3236;51.022;6.818;2022-07-18T10:36:09;3.17;;;1.80;;
6406;SDS011;3236;51.022;6.818;2022-07-18T10:38:38;5.10;;;1.48;;
6406;SDS011;3236;51.022;6.818;2022-07-18T10:41:11;6.40;;;1.90;;
6406;SDS011;3236;51.022;6.818;2022-07-18T10:43:43;3.30;;;1.55;;
6406;SDS011;3236;51.022;6.818;2022-07-18T10:46:12;7.43;;;1.50;;
6406;SDS011;3236;51.022;6.818;2022-07-18T10:54:07;7.78;;;1.90;;
6406;SDS011;3236;51.022;6.818;2022-07-18T11:02:31;4.75;;;1.38;;
6406;SDS011;3236;51.022;6.818;2022-07-18T11:04:59;4.05;;;2.03;;
6406;SDS011;3236;51.022;6.818;2022-07-18T11:07:27;4.20;;;1.80;;
6406;SDS011;3236;51.022;6.818;2022-07-18T11:09:54;5.43;;;2.05;;
6406;SDS011;3236;51.022;6.818;2022-07-18T11:12:27;4.55;;;1.80;;
6406;SDS011;3236;51.022;6.818;2022-07-18T11:15:04;5.32;;;1.80;;
6406;SDS011;3236;51.022;6.818;2022-07-18T11:20:28;7.82;;;1.77;;
6406;SDS011;3236;51.022;6.818;2022-07-18T11:23:03;6.88;;;2.00;;
6406;SDS011;3236;51.022;6.818;2022-07-18T11:25:39;7.45;;;2.17;;
6406;SDS011;3236;51.022;6.818;2022-07-18T11:28:08;4.40;;;2.33;;
6406;SDS011;3236;51.022;6.818;2022-07-18T11:30:36;3.70;;;1.80;;
6406;SDS011;3236;51.022;6.818;2022-07-18T11:33:04;4.95;;;2.00;;
6406;SDS011;3236;51.022;6.818;2022-07-18T11:35:32;3.08;;;1.77;;
6406;SDS011;3236;51.022;6.818;2022-07-18T11:38:03;7.50;;;1.92;;
6406;SDS011;3236;51.022;6.818;2022-07-18T11:40:31;6.38;;;1.70;;
6406;SDS011;3236;51.022;6.818;2022-07-18T11:42:58;5.22;;;2.22;;
6406;SDS011;3236;51.022;6.818;2022-07-18T11:45:27;4.65;;;1.85;;
6406;SDS011;3236;51.022;6.818;2022-07-18T11:47:54;7.57;;;1.90;;
6406;SDS011;3236;51.022;6.818;2022-07-18T11:50:33;3.40;;;1.67;;
6406;SDS011;3236;51.022;6.818;2022-07-18T11:53:02;3.50;;;1.50;;
6406;SDS011;3236;51.022;6.818;2022-07-18T11:55:33;4.05;;;1.30;;
6406;SDS011;3236;51.022;6.818;2022-07-18T11:58:07;9.30;;;2.15;;
6406;SDS011;3236;51.022;6.818;2022-07-18T12:00:35;4.22;;;1.58;;
6406;SDS011;3236;51.022;6.818;2022-07-18T12:03:04;3.33;;;1.40;;
6406;SDS011;3236;51.022;6.818;2022-07-18T12:05:39;8.70;;;1.55;;
6406;SDS011;3236;51.022;6.818;2022-07-18T12:08:26;4.28;;;1.65;;
6406;SDS011;3236;51.022;6.818;2022-07-18T12:11:02;5.95;;;1.60;;
6406;SDS011;3236;51.022;6.818;2022-07-18T12:13:43;6.55;;;1.60;;
6406;SDS011;3236;51.022;6.818;2022-07-18T12:16:27;3.42;;;1.70;;
6406;SDS011;3236;51.022;6.818;2022-07-18T12:18:56;4.82;;;1.40;;
6406;SDS011;3236;51.022;6.818;2022-07-18T12:21:37;5.33;;;1.87;;
6406;SDS011;3236;51.022;6.818;2022-07-18T12:24:16;3.80;;;1.52;;
6406;SDS011;3236;51.022;6.818;2022-07-18T12:26:44;3.13;;;1.38;;
6406;SDS011;3236;51.022;6.818;2022-07-18T12:29:11;4.55;;;2.15;;
6406;SDS011;3236;51.022;6.818;2022-07-18T12:31:40;2.47;;;1.73;;
6406;SDS011;3236;51.022;6.818;2022-07-18T12:34:13;3.00;;;1.58;;
6406;SDS011;3236;51.022;6.818;2022-07-18T12:36:53;4.22;;;1.30;;
6406;SDS011;3236;51.022;6.818;2022-07-18T12:39:28;4.35;;;1.40;;
6406;SDS011;3236;51.022;6.818;2022-07-18T12:41:56;4.15;;;1.33;;
6406;SDS011;3236;51.022;6.818;2022-07-18T12:44:28;3.90;;;2.08;;
6406;SDS011;3236;51.022;6.818;2022-07-18T12:46:57;2.30;;;1.33;;
6406;SDS011;3236;51.022;6.818;2022-07-18T12:49:26;2.90;;;1.40;;
6406;SDS011;3236;51.022;6.818;2022-07-18T12:51:53;4.45;;;1.35;;
6406;SDS011;3236;51.022;6.818;2022-07-18T12:54:21;8.05;;;1.60;;
6406;SDS011;3236;51.022;6.818;2022-07-18T12:56:48;3.28;;;1.30;;
6406;SDS011;3236;51.022;6.818;2022-07-18T12:59:15;3.97;;;1.80;;
6406;SDS011;3236;51.022;6.818;2022-07-18T13:01:43;4.22;;;1.40;;
6406;SDS011;3236;51.022;6.818;2022-07-18T13:04:14;5.53;;;1.40;;
6406;SDS011;3236;51.022;6.818;2022-07-18T13:06:42;8.80;;;1.58;;
6406;SDS011;3236;51.022;6.818;2022-07-18T13:09:09;1.92;;;1.40;;
6406;SDS011;3236;51.022;6.818;2022-07-18T13:11:37;6.15;;;1.55;;
6406;SDS011;3236;51.022;6.818;2022-07-18T13:14:05;3.58;;;1.42;;
6406;SDS011;3236;51.022;6.818;2022-07-18T13:16:33;3.88;;;1.42;;
6406;SDS011;3236;51.022;6.818;2022-07-18T13:19:00;4.32;;;1.58;;
6406;SDS011;3236;51.022;6.818;2022-07-18T13:21:29;5.15;;;1.40;;
6406;SDS011;3236;51.022;6.818;2022-07-18T13:23:56;5.95;;;1.60;;
6406;SDS011;3236;51.022;6.818;2022-07-18T13:26:23;4.25;;;1.50;;
6406;SDS011;3236;51.022;6.818;2022-07-18T13:28:54;1.98;;;1.17;;
6406;SDS011;3236;51.022;6.818;2022-07-18T13:31:21;4.25;;;1.63;;
6406;SDS011;3236;51.022;6.818;2022-07-18T13:33:49;4.05;;;1.25;;
6406;SDS011;3236;51.022;6.818;2022-07-18T13:36:17;3.22;;;1.60;;
6406;SDS011;3236;51.022;6.818;2022-07-18T13:38:46;2.70;;;1.38;;
6406;SDS011;3236;51.022;6.818;2022-07-18T13:41:13;3.20;;;1.40;;
6406;SDS011;3236;51.022;6.818;2022-07-18T13:43:40;3.90;;;1.60;;
6406;SDS011;3236;51.022;6.818;2022-07-18T13:46:08;4.88;;;1.90;;
6406;SDS011;3236;51.022;6.818;2022-07-18T13:48:37;4.85;;;1.65;;
6406;SDS011;3236;51.022;6.818;2022-07-18T13:51:05;7.07;;;1.70;;
6406;SDS011;3236;51.022;6.818;2022-07-18T13:53:32;4.55;;;1.40;;
6406;SDS011;3236;51.022;6.818;2022-07-18T13:56:01;7.43;;;1.67;;
6406;SDS011;3236;51.022;6.818;2022-07-18T13:58:28;8.02;;;2.25;;
6406;SDS011;3236;51.022;6.818;2022-07-18T14:00:55;4.57;;;1.70;;
6406;SDS011;3236;51.022;6.818;2022-07-18T14:03:22;7.03;;;1.60;;
6406;SDS011;3236;51.022;6.818;2022-07-18T14:05:49;7.55;;;2.83;;
6406;SDS011;3236;51.022;6.818;2022-07-18T14:08:16;8.70;;;2.20;;
6406;SDS011;3236;51.022;6.818;2022-07-18T14:10:44;14.73;;;1.90;;
6406;SDS011;3236;51.022;6.818;2022-07-18T14:13:13;3.90;;;1.83;;
6406;SDS011;3236;51.022;6.818;2022-07-18T14:15:40;6.75;;;1.80;;
6406;SDS011;3236;51.022;6.818;2022-07-18T14:18:07;6.32;;;2.03;;
6406;SDS011;3236;51.022;6.818;2022-07-18T14:20:35;6.30;;;1.60;;
6406;SDS011;3236;51.022;6.818;2022-07-18T14:23:02;6.13;;;2.17;;
6406;SDS011;3236;51.022;6.818;2022-07-18T14:25:29;5.78;;;1.70;;
6406;SDS011;3236;51.022;6.818;2022-07-18T14:27:56;7.25;;;1.70;;
6406;SDS011;3236;51.022;6.818;2022-07-18T14:30:25;7.32;;;1.70;;
6406;SDS011;3236;51.022;6.818;2022-07-18T14:32:52;5.95;;;2.08;;
6406;SDS011;3236;51.022;6.818;2022-07-18T14:35:19;5.90;;;1.80;;
6406;SDS011;3236;51.022;6.818;2022-07-18T14:37:47;8.20;;;2.00;;
6406;SDS011;3236;51.022;6.818;2022-07-18T14:40:15;7.57;;;1.70;;
6406;SDS011;3236;51.022;6.818;2022-07-18T14:42:42;2.47;;;1.50;;
6406;SDS011;3236;51.022;6.818;2022-07-18T14:45:09;2.50;;;1.52;;
6406;SDS011;3236;51.022;6.818;2022-07-18T14:47:38;8.93;;;2.40;;
6406;SDS011;3236;51.022;6.818;2022-07-18T14:50:06;4.93;;;1.75;;
6406;SDS011;3236;51.022;6.818;2022-07-18T14:52:35;5.95;;;1.50;;
6406;SDS011;3236;51.022;6.818;2022-07-18T14:55:02;4.32;;;1.88;;
6406;SDS011;3236;51.022;6.818;2022-07-18T14:57:29;5.80;;;1.88;;
6406;SDS011;3236;51.022;6.818;2022-07-18T14:59:56;5.80;;;2.05;;
6406;SDS011;3236;51.022;6.818;2022-07-18T15:02:25;7.85;;;2.13;;
6406;SDS011;3236;51.022;6.818;2022-07-18T15:04:53;6.47;;;1.90;;
6406;SDS011;3236;51.022;6.818;2022-07-18T15:07:20;8.70;;;2.00;;
6406;SDS011;3236;51.022;6.818;2022-07-18T15:09:48;10.23;;;2.20;;
6406;SDS011;3236;51.022;6.818;2022-07-18T15:12:15;8.50;;;2.10;;
6406;SDS011;3236;51.022;6.818;2022-07-18T15:14:42;3.33;;;1.40;;
6406;SDS011;3236;51.022;6.818;2022-07-18T15:17:10;6.00;;;2.08;;
6406;SDS011;3236;51.022;6.818;2022-07-18T15:19:37;6.95;;;2.00;;
6406;SDS011;3236;51.022;6.818;2022-07-18T15:22:06;5.75;;;1.60;;
6406;SDS011;3236;51.022;6.818;2022-07-18T15:24:34;11.27;;;2.15;;
6406;SDS011;3236;51.022;6.818;2022-07-18T15:27:01;6.93;;;1.80;;
6406;SDS011;3236;51.022;6.818;2022-07-18T15:29:29;5.20;;;1.67;;
6406;SDS011;3236;51.022;6.818;2022-07-18T15:31:56;6.57;;;2.05;;
6406;SDS011;3236;51.022;6.818;2022-07-18T15:34:24;3.88;;;1.55;;
6406;SDS011;3236;51.022;6.818;2022-07-18T15:36:51;3.40;;;1.45;;
6406;SDS011;3236;51.022;6.818;2022-07-18T15:39:20;3.60;;;1.85;;
6406;SDS011;3236;51.022;6.818;2022-07-18T15:41:48;4.72;;;1.83;;
6406;SDS011;3236;51.022;6.818;2022-07-18T15:44:15;9.63;;;2.00;;